createdAt,value
2022-09-14T00:00:12.034Z,1.15
2022-09-14T00:02:38.701Z,1.85
2022-09-14T00:05:05.688Z,1.05
2022-09-14T00:07:32.241Z,1.15
2022-09-14T00:09:58.821Z,0.82
2022-09-14T00:12:25.423Z,1.00
2022-09-14T00:14:52.053Z,0.80
2022-09-14T00:17:18.906Z,1.10
2022-09-14T00:19:45.578Z,1.00
2022-09-14T00:22:12.135Z,0.70
2022-09-14T00:24:38.695Z,0.93
2022-09-14T00:27:05.272Z,1.17
2022-09-14T00:29:31.976Z,1.17
2022-09-14T00:31:58.748Z,1.10
2022-09-14T00:34:25.400Z,1.15
2022-09-14T00:36:52.323Z,0.90
2022-09-14T00:39:21.896Z,1.13
2022-09-14T00:41:49.335Z,0.90
2022-09-14T00:44:15.819Z,1.00
2022-09-14T00:46:48.052Z,1.10
2022-09-14T00:49:20.019Z,1.02
2022-09-14T00:51:55.285Z,1.23
2022-09-14T00:54:21.855Z,0.90
2022-09-14T00:56:48.760Z,1.10
2022-09-14T00:59:18.437Z,0.90
2022-09-14T01:01:45.137Z,0.60
2022-09-14T01:04:11.793Z,1.48
2022-09-14T01:06:47.412Z,0.93
2022-09-14T01:09:35.258Z,0.85
2022-09-14T01:12:23.184Z,1.10
2022-09-14T01:15:08.591Z,0.85
2022-09-14T01:17:43.216Z,1.00
2022-09-14T01:20:27.109Z,1.05
2022-09-14T01:23:16.121Z,1.10
2022-09-14T01:26:05.708Z,1.00
2022-09-14T01:28:38.061Z,0.88
2022-09-14T01:31:11.802Z,1.08
2022-09-14T01:33:44.549Z,0.77
2022-09-14T01:36:12.844Z,1.00
2022-09-14T01:38:42.921Z,0.70
2022-09-14T01:41:14.893Z,0.85
2022-09-14T01:43:44.838Z,1.00
2022-09-14T01:46:18.291Z,1.50
2022-09-14T01:48:59.309Z,0.90
2022-09-14T01:51:36.776Z,0.85
2022-09-14T01:54:46.224Z,1.40
2022-09-14T01:57:26.313Z,0.75
2022-09-14T01:59:55.899Z,0.95
2022-09-14T02:02:39.506Z,0.70
2022-09-14T02:05:15.172Z,1.00
2022-09-14T02:07:41.804Z,0.90
2022-09-14T02:10:11.801Z,1.00
2022-09-14T02:12:39.323Z,1.02
2022-09-14T02:15:07.864Z,0.90
2022-09-14T02:20:02.321Z,1.13
2022-09-14T02:22:30.443Z,0.95
2022-09-14T02:24:57.995Z,1.17
2022-09-14T02:27:25.397Z,1.25
2022-09-14T02:29:52.499Z,0.90
2022-09-14T02:32:35.933Z,1.20
2022-09-14T02:35:22.118Z,1.08
2022-09-14T02:37:59.921Z,1.00
2022-09-14T02:40:35.825Z,0.88
2022-09-14T02:43:23.483Z,1.10
2022-09-14T02:46:05.160Z,1.20
2022-09-14T02:48:42.600Z,1.10
2022-09-14T02:51:16.032Z,1.25
2022-09-14T02:53:56.257Z,1.77
2022-09-14T02:56:22.915Z,1.33
2022-09-14T02:58:49.828Z,1.40
2022-09-14T03:01:19.947Z,1.55
2022-09-14T03:03:46.777Z,1.13
2022-09-14T03:06:13.652Z,1.20
2022-09-14T03:08:41.525Z,1.25
2022-09-14T03:11:08.105Z,1.60
2022-09-14T03:13:35.858Z,1.40
2022-09-14T03:16:10.962Z,1.00
2022-09-14T03:18:38.304Z,1.27
2022-09-14T03:21:10.019Z,1.10
2022-09-14T03:23:41.322Z,1.00
2022-09-14T03:26:15.250Z,1.02
2022-09-14T03:28:41.915Z,0.98
2022-09-14T03:31:10.136Z,1.10
2022-09-14T03:33:36.979Z,0.80
2022-09-14T03:36:11.772Z,0.90
2022-09-14T03:38:38.478Z,0.80
2022-09-14T03:41:09.583Z,1.02
2022-09-14T03:43:36.391Z,0.70
2022-09-14T03:46:13.859Z,1.00
2022-09-14T03:48:40.826Z,0.70
2022-09-14T03:51:08.691Z,0.90
2022-09-14T03:53:35.875Z,0.77
2022-09-14T03:56:08.030Z,0.73
2022-09-14T03:58:34.787Z,1.15
2022-09-14T04:01:06.217Z,1.05
2022-09-14T04:03:33.225Z,0.70
2022-09-14T04:05:59.840Z,0.80
2022-09-14T04:08:26.731Z,1.15
2022-09-14T04:10:53.749Z,0.93
2022-09-14T04:13:20.380Z,1.00
2022-09-14T04:15:57.030Z,0.90
2022-09-14T04:18:24.117Z,0.80
2022-09-14T04:20:56.360Z,0.90
2022-09-14T04:23:23.163Z,0.88
2022-09-14T04:25:49.700Z,0.98
2022-09-14T04:28:20.586Z,1.08
2022-09-14T04:31:01.333Z,0.75
2022-09-14T04:33:33.040Z,1.33
2022-09-14T04:36:01.906Z,0.73
2022-09-14T04:38:29.456Z,1.20
2022-09-14T04:40:56.628Z,1.00
2022-09-14T04:43:24.316Z,1.23
2022-09-14T04:45:51.695Z,0.70
2022-09-14T04:48:18.679Z,1.00
2022-09-14T04:50:45.816Z,1.05
2022-09-14T04:53:12.535Z,1.17
2022-09-14T04:55:39.195Z,0.88
2022-09-14T04:58:06.220Z,1.00
2022-09-14T05:00:35.963Z,1.27
2022-09-14T05:03:04.666Z,1.17
2022-09-14T05:05:31.645Z,1.27
2022-09-14T05:07:58.183Z,2.20
2022-09-14T05:10:24.793Z,1.35
2022-09-14T05:12:51.485Z,1.45
2022-09-14T05:15:18.080Z,0.93
2022-09-14T05:17:44.617Z,1.13
2022-09-14T05:20:11.180Z,0.90
2022-09-14T05:22:37.759Z,1.02
2022-09-14T05:25:04.463Z,1.00
2022-09-14T05:27:31.335Z,0.85
2022-09-14T05:29:57.915Z,1.10
2022-09-14T05:32:24.469Z,1.00
2022-09-14T05:34:51.063Z,1.00
2022-09-14T05:37:18.955Z,1.00
2022-09-14T05:39:45.573Z,1.20
2022-09-14T05:42:12.159Z,0.93
2022-09-14T05:44:38.755Z,1.00
2022-09-14T05:47:05.468Z,1.02
2022-09-14T05:49:32.019Z,1.08
2022-09-14T05:51:58.577Z,1.10
2022-09-14T05:54:25.203Z,1.30
2022-09-14T05:56:51.884Z,1.17
2022-09-14T05:59:18.432Z,1.10
2022-09-14T06:01:45.243Z,1.63
2022-09-14T06:04:12.199Z,1.13
2022-09-14T06:06:38.806Z,1.27
2022-09-14T06:09:05.363Z,1.33
2022-09-14T06:11:36.288Z,0.95
2022-09-14T06:14:03.017Z,1.30
2022-09-14T06:16:29.881Z,1.08
2022-09-14T06:18:58.214Z,1.00
2022-09-14T06:21:29.373Z,1.00
2022-09-14T06:23:56.260Z,1.10
2022-09-14T06:26:22.917Z,0.90
2022-09-14T06:28:49.551Z,1.00
2022-09-14T06:31:17.798Z,1.08
2022-09-14T06:33:45.157Z,1.20
2022-09-14T06:36:14.568Z,1.00
2022-09-14T06:38:41.995Z,1.15
2022-09-14T06:41:12.219Z,1.48
2022-09-14T06:43:40.417Z,1.10
2022-09-14T06:46:20.920Z,1.05
2022-09-14T06:49:01.112Z,1.38
2022-09-14T06:51:30.619Z,1.23
2022-09-14T06:54:00.201Z,1.40
2022-09-14T06:56:34.824Z,2.65
2022-09-14T06:59:01.895Z,1.08
2022-09-14T07:01:29.928Z,1.20
2022-09-14T07:03:57.264Z,1.50
2022-09-14T07:06:30.339Z,2.08
2022-09-14T07:08:57.322Z,1.45
2022-09-14T07:11:27.164Z,1.90
2022-09-14T07:13:55.723Z,1.20
2022-09-14T07:18:48.832Z,1.20
2022-09-14T07:21:18.171Z,0.95
2022-09-14T07:23:46.066Z,1.20
2022-09-14T07:26:15.651Z,1.10
2022-09-14T07:28:43.553Z,2.20
2022-09-14T07:31:21.454Z,1.02
2022-09-14T07:33:48.872Z,1.10
2022-09-14T07:36:15.494Z,1.02
2022-09-14T07:38:52.274Z,1.52
2022-09-14T07:41:25.679Z,1.30
2022-09-14T07:43:54.814Z,1.00
2022-09-14T07:46:22.190Z,1.10
2022-09-14T07:48:49.315Z,0.93
2022-09-14T07:51:16.210Z,1.30
2022-09-14T07:53:43.572Z,1.38
2022-09-14T07:56:11.607Z,1.02
2022-09-14T07:58:38.553Z,1.23
2022-09-14T08:01:12.721Z,1.10
2022-09-14T08:03:41.152Z,1.38
2022-09-14T08:06:16.274Z,1.15
2022-09-14T08:08:44.859Z,0.93
2022-09-14T08:13:55.768Z,1.05
2022-09-14T08:16:23.206Z,1.10
2022-09-14T08:19:03.259Z,1.20
2022-09-14T08:21:31.075Z,1.00
2022-09-14T08:23:58.181Z,0.80
2022-09-14T08:26:26.344Z,1.08
2022-09-14T08:28:54.424Z,1.00
2022-09-14T08:31:24.066Z,0.82
2022-09-14T08:33:53.351Z,0.80
2022-09-14T08:36:22.064Z,0.80
2022-09-14T08:38:48.874Z,0.88
2022-09-14T08:41:38.304Z,0.80
2022-09-14T08:44:19.656Z,0.80
2022-09-14T08:46:49.159Z,1.00
2022-09-14T08:49:48.953Z,0.90
2022-09-14T08:52:23.121Z,0.75
2022-09-14T08:54:53.515Z,0.80
2022-09-14T08:57:26.234Z,0.80
2022-09-14T09:00:14.349Z,0.70
2022-09-14T09:03:21.451Z,1.10
2022-09-14T09:06:03.340Z,1.00
2022-09-14T09:08:34.838Z,1.02
2022-09-14T09:11:01.845Z,0.90
2022-09-14T09:13:31.817Z,0.70
2022-09-14T09:16:01.798Z,0.90
2022-09-14T09:18:40.533Z,0.98
2022-09-14T09:21:16.172Z,0.90
2022-09-14T09:23:43.938Z,0.80
2022-09-14T09:26:25.763Z,0.88
2022-09-14T09:28:57.553Z,1.20
2022-09-14T09:31:51.801Z,1.13
2022-09-14T09:34:27.760Z,1.00
2022-09-14T09:36:56.056Z,0.70
2022-09-14T09:39:26.057Z,1.38
2022-09-14T09:42:07.198Z,0.80
2022-09-14T09:45:01.341Z,0.80
2022-09-14T09:47:39.700Z,0.85
2022-09-14T09:50:16.483Z,0.80
2022-09-14T09:52:50.965Z,1.25
2022-09-14T09:55:22.116Z,1.08
2022-09-14T09:57:48.728Z,0.75
2022-09-14T10:00:25.634Z,1.40
2022-09-14T10:02:53.235Z,0.90
2022-09-14T10:05:25.932Z,1.10
2022-09-14T10:08:00.027Z,0.95
2022-09-14T10:10:43.056Z,1.10
2022-09-14T10:13:29.956Z,2.00
2022-09-14T10:16:18.471Z,2.33
2022-09-14T10:18:51.275Z,6.93
2022-09-14T10:21:23.178Z,4.43
2022-09-14T10:24:16.366Z,2.00
2022-09-14T10:26:43.644Z,0.90
2022-09-14T10:29:35.531Z,1.00
2022-09-14T10:32:18.356Z,1.23
2022-09-14T10:34:45.712Z,0.90
2022-09-14T10:37:41.565Z,0.90
2022-09-14T10:40:15.750Z,0.95
2022-09-14T10:43:14.366Z,0.80
2022-09-14T10:45:52.893Z,1.33
2022-09-14T10:48:51.885Z,0.65
2022-09-14T10:51:24.832Z,1.05
2022-09-14T10:53:57.383Z,1.38
2022-09-14T10:56:29.288Z,1.13
2022-09-14T10:59:05.052Z,1.05
2022-09-14T11:02:12.222Z,1.13
2022-09-14T11:05:03.716Z,1.00
2022-09-14T11:07:49.196Z,0.80
2022-09-14T11:10:15.748Z,0.80
2022-09-14T11:12:50.424Z,1.10
2022-09-14T11:15:32.363Z,0.93
2022-09-14T11:18:08.013Z,1.00
2022-09-14T11:20:51.469Z,1.27
2022-09-14T11:23:41.337Z,1.17
2022-09-14T11:26:41.576Z,1.40
2022-09-14T11:29:24.775Z,1.08
2022-09-14T11:32:20.897Z,1.10
2022-09-14T11:34:56.637Z,0.90
2022-09-14T11:37:50.581Z,0.90
2022-09-14T11:40:20.378Z,0.90
2022-09-14T11:42:59.006Z,0.80
2022-09-14T11:45:36.600Z,1.10
2022-09-14T11:48:48.729Z,1.00
2022-09-14T11:51:20.043Z,1.20
2022-09-14T11:53:47.329Z,1.38
2022-09-14T11:56:26.601Z,0.88
2022-09-14T11:58:55.688Z,1.17
2022-09-14T12:01:37.331Z,1.70
2022-09-14T12:04:17.818Z,1.10
2022-09-14T12:06:50.729Z,1.23
2022-09-14T12:09:17.304Z,1.10
2022-09-14T12:11:45.189Z,1.33
2022-09-14T12:14:24.113Z,1.33
2022-09-14T12:20:30.634Z,1.17
2022-09-14T12:23:25.727Z,0.98
2022-09-14T12:26:04.554Z,1.10
2022-09-14T12:28:40.201Z,0.90
2022-09-14T12:31:06.983Z,0.88
2022-09-14T12:33:33.546Z,1.00
2022-09-14T12:36:04.600Z,1.00
2022-09-14T12:38:31.165Z,1.20
2022-09-14T12:41:02.639Z,1.40
2022-09-14T12:43:35.222Z,1.33
2022-09-14T12:46:09.893Z,1.10
2022-09-14T12:48:48.945Z,1.17
2022-09-14T12:51:36.702Z,1.05
2022-09-14T12:54:09.882Z,1.40
2022-09-14T12:57:09.600Z,1.20
2022-09-14T12:59:57.531Z,1.30
2022-09-14T13:02:58.228Z,1.35
2022-09-14T13:05:30.121Z,0.82
2022-09-14T13:07:56.883Z,1.08
2022-09-14T13:10:29.530Z,1.02
2022-09-14T13:12:56.410Z,1.10
2022-09-14T13:15:27.977Z,1.00
2022-09-14T13:18:06.728Z,1.42
2022-09-14T13:20:35.652Z,1.10
2022-09-14T13:23:02.541Z,0.98
2022-09-14T13:25:32.531Z,1.23
2022-09-14T13:28:07.282Z,1.30
2022-09-14T13:30:35.343Z,1.23
2022-09-14T13:33:04.730Z,1.25
2022-09-14T13:35:57.575Z,0.80
2022-09-14T13:38:30.401Z,1.15
2022-09-14T13:41:05.088Z,0.90
2022-09-14T13:43:31.765Z,1.10
2022-09-14T13:45:58.550Z,0.90
2022-09-14T13:48:25.243Z,0.93
2022-09-14T13:50:52.404Z,1.27
2022-09-14T13:53:48.728Z,0.93
2022-09-14T13:56:31.869Z,1.10
2022-09-14T13:59:07.460Z,1.42
2022-09-14T14:01:42.634Z,1.00
2022-09-14T14:04:28.244Z,1.10
2022-09-14T14:07:13.336Z,0.80
2022-09-14T14:09:42.646Z,0.85
2022-09-14T14:12:11.669Z,1.33
2022-09-14T14:14:38.786Z,1.02
2022-09-14T14:17:22.795Z,1.02
2022-09-14T14:19:51.204Z,1.00
2022-09-14T14:22:20.098Z,1.10
2022-09-14T14:27:44.709Z,0.93
2022-09-14T14:30:19.847Z,1.02
2022-09-14T14:32:51.195Z,0.90
2022-09-14T14:35:22.575Z,1.30
2022-09-14T14:37:50.243Z,1.10
2022-09-14T14:40:18.136Z,1.13
2022-09-14T14:42:44.953Z,0.70
2022-09-14T14:45:20.837Z,0.70
2022-09-14T14:47:48.431Z,0.80
2022-09-14T14:50:17.106Z,0.80
2022-09-14T14:52:43.911Z,1.08
2022-09-14T14:55:10.633Z,0.98
2022-09-14T14:57:39.937Z,1.00
2022-09-14T15:00:13.956Z,0.95
2022-09-14T15:02:40.508Z,0.88
2022-09-14T15:05:07.493Z,0.77
2022-09-14T15:07:37.594Z,1.05
2022-09-14T15:10:05.437Z,1.33
2022-09-14T15:12:32.843Z,1.08
2022-09-14T15:14:59.686Z,0.90
2022-09-14T15:17:26.387Z,1.15
2022-09-14T15:19:52.948Z,0.90
2022-09-14T15:22:19.890Z,0.95
2022-09-14T15:24:46.436Z,0.95
2022-09-14T15:27:13.005Z,1.17
2022-09-14T15:29:39.707Z,1.55
2022-09-14T15:32:06.456Z,1.20
2022-09-14T15:34:33.071Z,0.90
2022-09-14T15:36:59.660Z,1.20
2022-09-14T15:39:28.604Z,1.05
2022-09-14T15:41:56.177Z,0.88
2022-09-14T15:44:22.911Z,0.90
2022-09-14T15:46:50.312Z,1.00
2022-09-14T15:49:20.975Z,1.13
2022-09-14T15:51:50.433Z,1.15
2022-09-14T15:54:18.189Z,0.90
2022-09-14T15:56:53.860Z,1.48
2022-09-14T15:59:21.155Z,1.15
2022-09-14T16:01:48.419Z,0.90
2022-09-14T16:04:15.412Z,1.20
2022-09-14T16:06:41.975Z,1.00
2022-09-14T16:09:10.219Z,1.05
2022-09-14T16:11:37.622Z,0.95
2022-09-14T16:14:07.756Z,0.95
2022-09-14T16:16:35.317Z,0.90
2022-09-14T16:19:10.961Z,1.33
2022-09-14T16:21:38.041Z,1.27
2022-09-14T16:24:06.804Z,1.08
2022-09-14T16:26:36.095Z,0.80
2022-09-14T16:29:03.740Z,1.00
2022-09-14T16:31:33.014Z,1.00
2022-09-14T16:34:02.268Z,0.93
2022-09-14T16:36:31.493Z,1.17
2022-09-14T16:39:00.543Z,0.93
2022-09-14T16:41:27.999Z,0.90
2022-09-14T16:43:58.715Z,1.00
2022-09-14T16:46:26.876Z,1.00
2022-09-14T16:48:53.949Z,1.27
2022-09-14T16:51:23.021Z,1.42
2022-09-14T16:53:51.066Z,1.40
2022-09-14T16:56:22.545Z,1.45
2022-09-14T16:58:51.063Z,1.13
2022-09-14T17:03:55.071Z,1.10
2022-09-14T17:06:24.726Z,1.20
2022-09-14T17:08:53.863Z,1.20
2022-09-14T17:11:20.501Z,1.23
2022-09-14T17:13:47.193Z,1.40
2022-09-14T17:16:16.738Z,1.58
2022-09-14T17:18:44.762Z,0.90
2022-09-14T17:21:17.742Z,1.10
2022-09-14T17:23:44.486Z,1.33
2022-09-14T17:26:13.242Z,1.15
2022-09-14T17:28:40.606Z,1.65
2022-09-14T17:31:08.496Z,1.20
2022-09-14T17:33:35.789Z,0.88
2022-09-14T17:36:04.855Z,1.50
2022-09-14T17:38:39.771Z,1.05
2022-09-14T17:41:19.101Z,1.45
2022-09-14T17:43:50.995Z,1.33
2022-09-14T17:46:18.287Z,1.20
2022-09-14T17:48:44.885Z,1.38
2022-09-14T17:51:20.443Z,1.20
2022-09-14T17:53:49.527Z,1.00
2022-09-14T17:56:17.978Z,1.05
2022-09-14T17:58:44.689Z,1.17
2022-09-14T18:01:16.263Z,1.20
2022-09-14T18:03:49.205Z,1.52
2022-09-14T18:06:15.884Z,1.30
2022-09-14T18:08:42.716Z,1.80
2022-09-14T18:11:12.969Z,1.48
2022-09-14T18:13:41.771Z,1.40
2022-09-14T18:16:08.888Z,1.95
2022-09-14T18:18:35.953Z,1.60
2022-09-14T18:21:02.578Z,1.92
2022-09-14T18:23:29.480Z,1.65
2022-09-14T18:25:56.125Z,1.60
2022-09-14T18:28:23.655Z,1.67
2022-09-14T18:30:50.674Z,1.73
2022-09-14T18:33:17.614Z,2.10
2022-09-14T18:35:44.193Z,2.70
2022-09-14T18:38:11.830Z,2.53
2022-09-14T18:40:38.457Z,2.17
2022-09-14T18:43:05.295Z,3.00
2022-09-14T18:45:34.126Z,2.90
2022-09-14T18:48:00.872Z,3.53
2022-09-14T18:50:27.468Z,2.78
2022-09-14T18:52:54.044Z,3.50
2022-09-14T18:55:21.450Z,4.20
2022-09-14T18:57:48.827Z,3.83
2022-09-14T19:00:18.647Z,4.63
2022-09-14T19:02:46.059Z,4.93
2022-09-14T19:05:12.843Z,5.00
2022-09-14T19:07:39.469Z,4.85
2022-09-14T19:10:11.498Z,4.47
2022-09-14T19:12:38.414Z,4.50
2022-09-14T19:15:05.844Z,5.00
2022-09-14T19:17:32.546Z,5.70
2022-09-14T19:19:59.120Z,5.07
2022-09-14T19:22:25.929Z,6.18
2022-09-14T19:24:52.534Z,6.95
2022-09-14T19:27:19.075Z,6.20
2022-09-14T19:29:45.653Z,6.80
2022-09-14T19:32:12.336Z,6.90
2022-09-14T19:34:38.991Z,7.88
2022-09-14T19:37:05.589Z,7.65
2022-09-14T19:39:32.164Z,7.45
2022-09-14T19:41:58.778Z,7.07
2022-09-14T19:44:25.361Z,7.13
2022-09-14T19:46:52.245Z,6.97
2022-09-14T19:49:21.180Z,7.53
2022-09-14T19:51:48.703Z,8.75
2022-09-14T19:54:15.702Z,7.53
2022-09-14T19:56:43.252Z,7.25
2022-09-14T19:59:09.936Z,8.00
2022-09-14T20:01:38.255Z,8.45
2022-09-14T20:04:06.255Z,8.60
2022-09-14T20:06:35.516Z,8.73
2022-09-14T20:09:17.037Z,8.73
2022-09-14T20:11:45.161Z,8.00
2022-09-14T20:14:14.869Z,9.73
2022-09-14T20:16:47.011Z,7.60
2022-09-14T20:19:18.321Z,8.15
2022-09-14T20:21:46.271Z,8.73
2022-09-14T20:24:17.045Z,8.43
2022-09-14T20:26:48.871Z,8.52
2022-09-14T20:29:16.966Z,8.50
2022-09-14T20:31:44.287Z,8.50
2022-09-14T20:34:11.408Z,8.85
2022-09-14T20:36:37.965Z,7.82
2022-09-14T20:39:04.856Z,8.57
2022-09-14T20:41:34.288Z,8.50
2022-09-14T20:44:01.565Z,8.63
2022-09-14T20:46:36.171Z,7.85
2022-09-14T20:49:04.590Z,8.25
2022-09-14T20:51:31.460Z,9.55
2022-09-14T20:53:58.295Z,10.95
2022-09-14T20:56:27.322Z,8.70
2022-09-14T20:58:56.201Z,8.50
2022-09-14T21:01:24.807Z,8.60
2022-09-14T21:06:24.171Z,8.05
2022-09-14T21:08:51.239Z,8.63
2022-09-14T21:11:20.603Z,8.07
2022-09-14T21:13:47.673Z,7.80
2022-09-14T21:16:20.291Z,8.13
2022-09-14T21:18:48.440Z,7.90
2022-09-14T21:21:17.070Z,8.43
2022-09-14T21:26:11.582Z,8.23
2022-09-14T21:28:39.852Z,9.07
2022-09-14T21:31:17.884Z,7.95
2022-09-14T21:33:47.130Z,8.63
2022-09-14T21:36:19.404Z,7.63
2022-09-14T21:38:50.088Z,8.60
2022-09-14T21:41:17.327Z,8.25
2022-09-14T21:43:44.007Z,8.70
2022-09-14T21:46:11.180Z,8.23
2022-09-14T21:48:38.241Z,8.65
2022-09-14T21:51:26.754Z,8.30
2022-09-14T21:53:55.936Z,9.15
2022-09-14T21:56:24.275Z,8.93
2022-09-14T21:58:52.605Z,9.48
2022-09-14T22:01:21.158Z,9.07
2022-09-14T22:06:16.490Z,9.38
2022-09-14T22:08:43.273Z,8.95
2022-09-14T22:11:12.550Z,9.73
2022-09-14T22:13:39.639Z,9.35
2022-09-14T22:16:13.791Z,8.75
2022-09-14T22:18:47.957Z,10.00
2022-09-14T22:21:15.321Z,7.95
2022-09-14T22:23:41.936Z,8.85
2022-09-14T22:26:10.813Z,9.45
2022-09-14T22:28:40.095Z,10.48
2022-09-14T22:31:07.939Z,10.13
2022-09-14T22:33:35.408Z,10.98
2022-09-14T22:36:03.164Z,10.27
2022-09-14T22:38:31.607Z,10.23
2022-09-14T22:41:06.751Z,10.90
2022-09-14T22:43:34.683Z,9.85
2022-09-14T22:46:01.984Z,11.13
2022-09-14T22:48:28.916Z,11.80
2022-09-14T22:50:56.647Z,10.85
2022-09-14T22:53:24.957Z,10.93
2022-09-14T22:55:52.304Z,10.15
2022-09-14T22:58:20.693Z,10.27
2022-09-14T23:00:47.683Z,9.32
2022-09-14T23:03:15.064Z,9.60
2022-09-14T23:05:53.176Z,8.48
2022-09-14T23:08:19.784Z,8.60
2022-09-14T23:10:47.372Z,9.20
2022-09-14T23:13:15.413Z,10.45
2022-09-14T23:15:42.245Z,10.63
2022-09-14T23:18:09.173Z,11.27
2022-09-14T23:20:37.520Z,11.90
2022-09-14T23:23:04.666Z,13.63
2022-09-14T23:25:34.698Z,12.65
2022-09-14T23:28:03.254Z,12.07
2022-09-14T23:32:57.208Z,10.55
2022-09-14T23:35:24.153Z,10.57
2022-09-14T23:37:50.921Z,10.40
2022-09-14T23:40:19.623Z,9.73
2022-09-14T23:42:47.151Z,9.32
2022-09-14T23:45:14.629Z,8.35
2022-09-14T23:47:41.350Z,8.55
2022-09-14T23:50:08.627Z,9.35
2022-09-14T23:52:35.216Z,9.20
2022-09-14T23:55:01.970Z,11.07
2022-09-14T23:57:28.625Z,11.50
2022-09-14T23:59:55.362Z,11.52
